Time;durP1;ratioP1;P1;durP2;ratioP2;P2;SDS_P1;SDS_P2;PMS_P1;PMS_P2;Temp;Humidity;BMP_temperature;BMP_pressure;BME280_temperature;BME280_humidity;BME280_pressure;Samples;Min_cycle;Max_cycle;Signal;HPM_P1;HPM_P2
2024/03/01 00:01:41;;;;;;;;;;;;;;;18.52;62.88;101039.63;7386100;19;1311;-36
2024/03/01 00:04:09;;;;;;;;;;;;;;;18.54;62.82;101051.06;7383920;19;1863;-35
2024/03/01 00:06:38;;;;;;;;;;;;;;;18.48;63.05;101036.38;7386141;19;1318;-36
2024/03/01 00:09:06;;;;;;;;;;;;;;;18.45;63.34;101022.38;7385832;19;1364;-36
2024/03/01 00:11:34;;;;;;;;;;;;;;;18.41;63.34;101020.94;7384902;19;1389;-35
2024/03/01 00:14:03;;;;;;;;;;;;;;;18.49;63.18;101023.81;7386871;19;1524;-36
2024/03/01 00:16:31;;;;;;;;;;;;;;;18.51;63.02;101023.72;7387373;19;1260;-36
2024/03/01 00:19:02;;;;;;;;;;;;;;;18.54;62.92;101013.56;7386372;19;1810;-36
2024/03/01 00:21:31;;;;;;;;;;;;;;;18.51;63.06;101024.53;7385920;19;1481;-36
2024/03/01 00:23:59;;;;;;;;;;;;;;;18.52;62.98;101010.16;7383265;19;2511;-36
2024/03/01 00:26:27;;;;;;;;;;;;;;;18.39;63.18;101004.97;7385848;19;1646;-35
2024/03/01 00:28:56;;;;;;;;;;;;;;;18.13;63.51;100979.50;7384984;19;1582;-37
2024/03/01 00:31:25;;;;;;;;;;;;;;;18.33;63.60;101031.41;7385701;19;1592;-36
2024/03/01 00:33:53;;;;;;;;;;;;;;;18.38;63.27;101023.84;7385430;19;1581;-36
2024/03/01 00:36:24;;;;;;;;;;;;;;;18.45;63.18;101025.91;7385787;19;1662;-36
2024/03/01 00:38:52;;;;;;;;;;;;;;;18.45;63.19;101025.91;7386953;19;1634;-36
2024/03/01 00:41:21;;;;;;;;;;;;;;;18.44;63.01;101026.88;7385881;19;1378;-36
2024/03/01 00:43:49;;;;;;;;;;;;;;;18.47;63.05;101023.09;7384397;19;1862;-37
2024/03/01 00:46:18;;;;;;;;;;;;;;;18.41;63.02;101024.44;7381652;19;1824;-38
2024/03/01 00:48:48;;;;;;;;;;;;;;;18.38;63.10;101014.00;7384697;19;1887;-36
2024/03/01 00:51:16;;;;;;;;;;;;;;;18.36;63.52;101015.09;7385490;19;1633;-36
2024/03/01 00:53:47;;;;;;;;;;;;;;;18.37;63.45;101011.44;7385153;19;1354;-35
2024/03/01 00:56:16;;;;;;;;;;;;;;;18.38;63.20;101000.63;7384488;19;1353;-36
2024/03/01 00:58:44;;;;;;;;;;;;;;;18.39;63.22;101012.16;7385159;19;1598;-35
2024/03/01 01:01:12;;;;;;;;;;;;;;;18.38;62.97;101000.63;7384097;19;1604;-36
2024/03/01 01:03:41;;;;;;;;;;;;;;;18.45;62.98;101025.06;7383711;19;1843;-36
2024/03/01 01:06:10;;;;;;;;;;;;;;;18.40;63.04;101011.19;7384885;19;1549;-36
2024/03/01 01:08:38;;;;;;;;;;;;;;;18.44;63.06;101015.31;7383757;19;1135;-36
2024/03/01 01:11:09;;;;;;;;;;;;;;;18.42;63.14;100987.81;7384083;19;1535;-36
2024/03/01 01:13:37;;;;;;;;;;;;;;;18.31;63.51;100987.84;7383886;19;1468;-36
2024/03/01 01:16:06;;;;;;;;;;;;;;;18.32;63.47;100992.22;7383703;19;1898;-36
2024/03/01 01:18:35;;;;;;;;;;;;;;;18.31;63.29;100995.88;7384122;19;1815;-36
2024/03/01 01:21:03;;;;;;;;;;;;;;;18.33;63.34;101002.81;7384386;19;1758;-36
2024/03/01 01:23:31;;;;;;;;;;;;;;;18.37;63.27;100992.69;7381799;19;2475;-36
2024/03/01 01:26:00;;;;;;;;;;;;;;;18.39;63.14;100988.06;7384690;19;1674;-36
2024/03/01 01:28:31;;;;;;;;;;;;;;;18.40;63.11;100987.09;7383796;19;1535;-36
2024/03/01 01:30:59;;;;;;;;;;;;;;;18.26;63.42;100989.09;7383788;19;1469;-36
2024/03/01 01:33:27;;;;;;;;;;;;;;;18.21;63.80;100985.06;7383643;19;1244;-36
2024/03/01 01:35:56;;;;;;;;;;;;;;;18.25;63.83;101003.44;7382708;19;1798;-36
2024/03/01 01:38:24;;;;;;;;;;;;;;;18.28;63.53;100992.50;7383882;19;1946;-36
2024/03/01 01:40:53;;;;;;;;;;;;;;;18.28;63.36;100981.78;7383742;19;1635;-36
2024/03/01 01:43:21;;;;;;;;;;;;;;;18.32;63.42;100994.91;7382490;19;1856;-36
2024/03/01 01:45:52;;;;;;;;;;;;;;;18.33;63.38;100978.72;7382929;19;1813;-36
2024/03/01 01:48:20;;;;;;;;;;;;;;;18.31;63.18;100988.69;7382324;19;1384;-36
2024/03/01 01:50:49;;;;;;;;;;;;;;;18.33;63.24;100961.81;7382699;19;1746;-36
2024/03/01 01:53:17;;;;;;;;;;;;;;;18.32;63.22;100974.31;7382779;19;1599;-36
2024/03/01 01:55:46;;;;;;;;;;;;;;;18.26;63.71;100989.09;7383219;19;1630;-36
2024/03/01 01:58:14;;;;;;;;;;;;;;;18.24;63.55;100985.69;7381157;19;1447;-36
2024/03/01 02:00:43;;;;;;;;;;;;;;;18.24;63.63;100980.31;7381785;19;1635;-40
2024/03/01 02:03:16;;;;;;;;;;;;;;;18.24;63.52;100985.69;7384245;19;1005;-36
2024/03/01 02:05:44;;;;;;;;;;;;;;;18.33;63.38;100975.19;7384086;19;1082;-36
2024/03/01 02:08:13;;;;;;;;;;;;;;;18.21;63.63;100964.50;7381768;19;1550;-36
2024/03/01 02:10:41;;;;;;;;;;;;;;;18.21;63.41;100988.59;7381633;19;1903;-36
2024/03/01 02:13:19;;;;;;;;;;;;;;;18.61;62.42;100988.00;7380158;19;1801;-36
2024/03/01 02:15:48;;;;;;;;;;;;;;;19.54;60.10;100982.88;7382185;19;1896;-35
2024/03/01 02:18:19;;;;;;;;;;;;;;;20.41;58.09;100980.50;7381868;19;1480;-36
2024/03/01 02:20:57;;;;;;;;;;;;;;;20.32;58.33;100980.47;7382406;19;1925;-36
2024/03/01 02:23:28;;;;;;;;;;;;;;;20.09;58.83;100994.13;7382052;19;2104;-36
2024/03/01 02:25:57;;;;;;;;;;;;;;;19.76;59.87;100989.94;7389082;19;1717;-36
2024/03/01 02:28:25;;;;;;;;;;;;;;;19.88;59.56;100998.72;7386551;19;1023;-36
2024/03/01 02:30:54;;;;;;;;;;;;;;;19.88;59.59;100998.72;7388423;19;1484;-36
2024/03/01 02:33:22;;;;;;;;;;;;;;;19.81;59.88;100993.88;7387631;19;1961;-36
2024/03/01 02:35:51;;;;;;;;;;;;;;;19.77;59.96;101007.72;7388786;19;1766;-36
2024/03/01 02:38:19;;;;;;;;;;;;;;;19.77;60.00;101013.91;7388225;19;1812;-36
2024/03/01 02:40:50;;;;;;;;;;;;;;;19.96;59.50;101005.09;7387318;19;1496;-36
2024/03/01 02:43:18;;;;;;;;;;;;;;;20.35;58.38;101015.97;7387182;19;1465;-36
2024/03/01 02:45:47;;;;;;;;;;;;;;;20.42;58.08;101008.19;7386304;19;1810;-36
2024/03/01 02:48:15;;;;;;;;;;;;;;;20.55;57.89;100995.34;7385687;19;2392;-37
2024/03/01 02:50:43;;;;;;;;;;;;;;;20.50;57.93;100996.75;7387875;19;1370;-36
2024/03/01 02:53:12;;;;;;;;;;;;;;;20.51;57.90;101004.66;7384283;19;1670;-36
2024/03/01 02:55:40;;;;;;;;;;;;;;;20.49;57.93;100969.03;7387660;19;1829;-35
2024/03/01 02:58:11;;;;;;;;;;;;;;;20.59;57.78;100988.75;7387568;19;1465;-36
2024/03/01 03:00:39;;;;;;;;;;;;;;;20.62;57.51;100974.16;7386953;19;1483;-36
2024/03/01 03:03:08;;;;;;;;;;;;;;;20.65;57.59;100998.94;7388018;19;1046;-36
2024/03/01 03:05:36;;;;;;;;;;;;;;;20.61;57.68;100992.13;7386007;19;1850;-36
2024/03/01 03:08:05;;;;;;;;;;;;;;;20.71;57.42;100994.81;7385623;19;2470;-36
2024/03/01 03:10:33;;;;;;;;;;;;;;;20.83;57.12;100990.13;7391549;19;1575;-36
2024/03/01 03:13:03;;;;;;;;;;;;;;;20.77;57.38;100990.69;7393798;19;1706;-36
2024/03/01 03:15:34;;;;;;;;;;;;;;;20.77;57.05;100985.31;7394023;19;1491;-36
2024/03/01 03:18:03;;;;;;;;;;;;;;;20.79;57.21;100989.59;7393644;19;1804;-36
2024/03/01 03:20:35;;;;;;;;;;;;;;;20.77;57.40;101001.44;7393758;19;1637;-36
2024/03/01 03:23:03;;;;;;;;;;;;;;;20.85;56.99;100996.25;7393315;19;1078;-36
2024/03/01 03:25:32;;;;;;;;;;;;;;;20.62;56.96;100940.06;7390741;19;1882;-35
2024/03/01 03:28:00;;;;;;;;;;;;;;;20.70;57.52;100984.22;7392458;19;1801;-36
2024/03/01 03:30:28;;;;;;;;;;;;;;;20.82;57.01;100991.13;7392217;19;1235;-36
2024/03/01 03:32:59;;;;;;;;;;;;;;;20.88;57.09;100982.50;7393113;19;1527;-36
2024/03/01 03:35:28;;;;;;;;;;;;;;;20.88;57.09;100973.59;7393698;19;1674;-36
2024/03/01 03:37:56;;;;;;;;;;;;;;;20.88;56.93;100966.38;7393477;19;1804;-36
2024/03/01 03:40:24;;;;;;;;;;;;;;;20.89;57.15;100967.22;7393653;19;1234;-35
2024/03/01 03:42:53;;;;;;;;;;;;;;;20.88;57.16;100970.91;7394376;19;987;-36
2024/03/01 03:45:21;;;;;;;;;;;;;;;20.88;57.01;100954.78;7393009;19;1857;-36
2024/03/01 03:47:49;;;;;;;;;;;;;;;20.96;57.16;100957.59;7392215;19;1928;-36
2024/03/01 03:50:20;;;;;;;;;;;;;;;20.98;56.73;100967.22;7391003;19;2460;-36
2024/03/01 03:52:49;;;;;;;;;;;;;;;21.04;56.49;100939.75;7391859;19;1828;-36
2024/03/01 03:55:17;;;;;;;;;;;;;;;20.96;56.87;100958.44;7393186;19;1171;-36
2024/03/01 03:57:45;;;;;;;;;;;;;;;21.04;56.61;100972.00;7394051;19;1030;-36
2024/03/01 04:00:16;;;;;;;;;;;;;;;20.81;57.16;100986.75;7391276;19;1948;-36
2024/03/01 04:02:44;;;;;;;;;;;;;;;20.25;58.57;100969.41;7392812;19;1492;-35
2024/03/01 04:05:12;;;;;;;;;;;;;;;19.88;59.32;100974.59;7390463;19;1862;-36
2024/03/01 04:07:43;;;;;;;;;;;;;;;19.57;60.10;100948.56;7392745;19;1255;-36
2024/03/01 04:10:12;;;;;;;;;;;;;;;19.44;60.33;100959.53;7392615;19;1741;-36
2024/03/01 04:12:41;;;;;;;;;;;;;;;19.31;60.55;100932.06;7390853;19;1638;-36
2024/03/01 04:15:09;;;;;;;;;;;;;;;19.23;60.65;100942.63;7390679;19;1420;-36
2024/03/01 04:17:38;;;;;;;;;;;;;;;19.16;60.84;100950.34;7391446;19;1559;-36
2024/03/01 04:20:07;;;;;;;;;;;;;;;19.14;60.82;100970.22;7390415;19;1330;-36
2024/03/01 04:22:36;;;;;;;;;;;;;;;19.23;60.76;100945.31;7392703;19;1021;-38
2024/03/01 04:25:09;;;;;;;;;;;;;;;19.42;60.80;100957.97;7389998;19;1859;-36
2024/03/01 04:27:38;;;;;;;;;;;;;;;19.64;60.12;100933.66;7391530;19;1310;-36
2024/03/01 04:30:09;;;;;;;;;;;;;;;19.47;60.30;100937.78;7390952;19;1433;-36
2024/03/01 04:32:37;;;;;;;;;;;;;;;19.38;60.63;100935.09;7390929;19;1092;-36
2024/03/01 04:35:06;;;;;;;;;;;;;;;19.30;60.77;100926.84;7390968;19;2324;-37
2024/03/01 04:37:35;;;;;;;;;;;;;;;19.22;60.80;100933.75;7391826;19;1854;-36
2024/03/01 04:40:05;;;;;;;;;;;;;;;19.07;61.01;100940.41;7390928;19;1488;-35
2024/03/01 04:42:37;;;;;;;;;;;;;;;19.16;61.00;100944.13;7391833;19;1758;-35
2024/03/01 04:45:07;;;;;;;;;;;;;;;19.35;60.76;100948.75;7390473;19;1865;-35
2024/03/01 04:47:35;;;;;;;;;;;;;;;19.59;60.24;100964.53;7389225;19;2031;-36
2024/03/01 04:50:05;;;;;;;;;;;;;;;19.40;61.26;100962.63;7387844;19;1514;-36
2024/03/01 04:52:33;;;;;;;;;;;;;;;19.20;61.49;100957.16;7391129;19;1244;-36
2024/03/01 04:55:01;;;;;;;;;;;;;;;19.17;61.22;100953.88;7390504;19;1918;-36
2024/03/01 04:57:30;;;;;;;;;;;;;;;19.05;61.15;100986.09;7390538;19;1469;-36
2024/03/01 05:00:01;;;;;;;;;;;;;;;18.98;61.65;101003.69;7390300;19;1440;-35
2024/03/01 05:02:29;;;;;;;;;;;;;;;19.21;61.53;100963.34;7390654;19;1813;-36
2024/03/01 05:04:57;;;;;;;;;;;;;;;19.41;61.15;100973.19;7388097;19;1856;-36
2024/03/01 05:07:26;;;;;;;;;;;;;;;19.34;61.26;100961.31;7389128;19;1804;-36
2024/03/01 05:09:54;;;;;;;;;;;;;;;19.14;61.72;100963.03;7388676;19;1391;-36
2024/03/01 05:12:24;;;;;;;;;;;;;;;19.08;61.73;100948.34;7389407;19;1237;-35
2024/03/01 05:14:52;;;;;;;;;;;;;;;18.92;62.06;100972.06;7388426;19;1132;-36
2024/03/01 05:17:23;;;;;;;;;;;;;;;19.03;62.03;100969.31;7389235;19;1229;-36
2024/03/01 05:19:51;;;;;;;;;;;;;;;19.22;61.96;100981.16;7390196;19;1512;-37
2024/03/01 05:22:22;;;;;;;;;;;;;;;19.45;61.37;100985.34;7389441;19;1303;-36
2024/03/01 05:24:51;;;;;;;;;;;;;;;19.39;61.44;100985.88;7387201;19;1865;-36
2024/03/01 05:27:19;;;;;;;;;;;;;;;19.26;61.62;101028.16;7388963;19;1606;-36
2024/03/01 05:29:48;;;;;;;;;;;;;;;19.06;61.79;101008.41;7388642;19;1681;-36
2024/03/01 05:32:16;;;;;;;;;;;;;;;18.85;61.99;101017.25;7387095;19;1560;-36
2024/03/01 05:34:47;;;;;;;;;;;;;;;18.75;62.96;101005.59;7386361;19;1550;-36
2024/03/01 05:37:15;;;;;;;;;;;;;;;18.88;63.41;100986.72;7388931;19;1531;-37
2024/03/01 05:39:44;;;;;;;;;;;;;;;19.19;62.20;100966.16;7386972;19;1551;-36
2024/03/01 05:42:12;;;;;;;;;;;;;;;19.38;61.73;100948.50;7386395;19;1606;-35
2024/03/01 05:44:41;;;;;;;;;;;;;;;19.59;61.15;100980.63;7384622;19;1899;-35
2024/03/01 05:47:09;;;;;;;;;;;;;;;19.66;60.82;100984.50;7382150;19;1560;-35
2024/03/01 05:49:37;;;;;;;;;;;;;;;19.68;60.49;100990.56;7386617;19;1484;-36
2024/03/01 05:52:09;;;;;;;;;;;;;;;19.69;60.52;100989.56;7385128;19;1615;-35
2024/03/01 05:54:38;;;;;;;;;;;;;;;19.68;60.57;100998.63;7383794;19;1778;-35
2024/03/01 05:57:06;;;;;;;;;;;;;;;19.72;60.32;100994.72;7383960;19;1581;-36
2024/03/01 05:59:34;;;;;;;;;;;;;;;19.68;60.12;100978.00;7385793;19;1398;-36
2024/03/01 06:02:03;;;;;;;;;;;;;;;19.70;60.10;100980.56;7382757;19;1471;-36
2024/03/01 06:04:34;;;;;;;;;;;;;;;19.61;60.07;100971.44;7384120;19;1671;-36
2024/03/01 06:07:02;;;;;;;;;;;;;;;19.65;60.03;100977.41;7385868;19;1413;-36
2024/03/01 06:09:33;;;;;;;;;;;;;;;19.74;59.86;100983.84;7384192;19;1777;-36
2024/03/01 06:12:01;;;;;;;;;;;;;;;19.79;59.47;100977.06;7387648;19;1488;-36
2024/03/01 06:14:30;;;;;;;;;;;;;;;19.80;59.42;100976.09;7385355;19;2442;-36
2024/03/01 06:16:58;;;;;;;;;;;;;;;19.74;59.63;100959.69;7387469;19;1561;-36
2024/03/01 06:19:27;;;;;;;;;;;;;;;19.73;59.42;100961.50;7386680;19;1523;-36
2024/03/01 06:21:56;;;;;;;;;;;;;;;19.77;59.34;100933.41;7388976;19;1644;-36
2024/03/01 06:24:24;;;;;;;;;;;;;;;19.77;59.30;100937.94;7386565;19;1840;-37
2024/03/01 06:26:55;;;;;;;;;;;;;;;19.76;59.30;100953.19;7384449;19;1866;-36
2024/03/01 06:29:24;;;;;;;;;;;;;;;19.77;59.38;100943.31;7385888;19;1231;-36
2024/03/01 06:31:52;;;;;;;;;;;;;;;19.78;59.16;100951.22;7387327;19;1181;-35
2024/03/01 06:34:21;;;;;;;;;;;;;;;19.71;59.38;100944.69;7386761;19;1594;-36
2024/03/01 06:36:50;;;;;;;;;;;;;;;19.73;59.32;100921.25;7385221;19;1797;-36
2024/03/01 06:39:18;;;;;;;;;;;;;;;19.66;59.07;100914.72;7387803;19;1207;-36
2024/03/01 06:41:47;;;;;;;;;;;;;;;19.80;57.95;100916.22;7388555;19;968;-36
2024/03/01 06:44:23;;;;;;;;;;;;;;;19.82;58.18;100904.34;7386787;19;1817;-36
2024/03/01 06:46:51;;;;;;;;;;;;;;;19.60;58.92;100904.56;7392354;19;1823;-36
2024/03/01 06:49:19;;;;;;;;;;;;;;;19.30;59.62;100883.94;7395125;19;1590;-36
2024/03/01 06:51:48;;;;;;;;;;;;;;;19.17;60.09;100866.25;7395277;19;1131;-36
2024/03/01 06:54:16;;;;;;;;;;;;;;;18.98;60.84;100845.59;7394130;19;1784;-36
2024/03/01 06:56:46;;;;;;;;;;;;;;;19.04;60.96;100850.41;7393585;19;1239;-35
2024/03/01 06:59:14;;;;;;;;;;;;;;;19.07;60.99;100849.28;7393589;19;1509;-36
2024/03/01 07:01:45;;;;;;;;;;;;;;;19.06;60.62;100847.59;7394388;19;1563;-36
2024/03/01 07:04:13;;;;;;;;;;;;;;;19.25;60.29;100855.72;7395154;19;1737;-36
2024/03/01 07:06:42;;;;;;;;;;;;;;;19.26;60.22;100873.50;7390705;19;1849;-36
2024/03/01 07:09:10;;;;;;;;;;;;;;;19.16;60.42;100901.22;7392660;19;1606;-36
2024/03/01 07:11:38;;;;;;;;;;;;;;;18.99;60.64;100922.31;7393214;19;1204;-36
2024/03/01 07:14:08;;;;;;;;;;;;;;;18.94;60.95;100935.28;7393833;19;1376;-36
2024/03/01 07:16:36;;;;;;;;;;;;;;;18.91;61.10;100927.47;7394003;19;1832;-36
2024/03/01 07:19:07;;;;;;;;;;;;;;;19.13;60.54;100923.81;7394032;19;1472;-36
2024/03/01 07:21:36;;;;;;;;;;;;;;;19.35;59.86;100930.81;7393576;19;1532;-36
2024/03/01 07:24:04;;;;;;;;;;;;;;;19.46;59.52;100930.75;7393062;19;1551;-36
2024/03/01 07:26:33;;;;;;;;;;;;;;;19.18;59.63;100910.84;7391079;19;1855;-35
2024/03/01 07:29:02;;;;;;;;;;;;;;;19.07;60.56;100935.91;7391648;19;1467;-46
2024/03/01 07:31:30;;;;;;;;;;;;;;;18.85;61.35;100928.00;7392922;19;1580;-36
2024/03/01 07:33:58;;;;;;;;;;;;;;;18.77;61.29;100927.78;7392612;19;1417;-36
2024/03/01 07:36:29;;;;;;;;;;;;;;;18.83;60.65;100927.28;7389016;19;2616;-35
2024/03/01 07:38:57;;;;;;;;;;;;;;;19.15;59.68;100935.25;7389177;19;1249;-36
2024/03/01 07:41:26;;;;;;;;;;;;;;;19.15;59.50;100934.41;7390298;19;1397;-35
2024/03/01 07:43:54;;;;;;;;;;;;;;;18.96;59.54;100925.28;7391989;19;1234;-36
2024/03/01 07:46:23;;;;;;;;;;;;;;;18.90;59.57;100923.13;7391340;19;2277;-36
2024/03/01 07:48:51;;;;;;;;;;;;;;;18.85;60.20;100919.97;7391392;19;1606;-36
2024/03/01 07:51:19;;;;;;;;;;;;;;;19.01;59.55;100923.03;7390837;19;1445;-35
2024/03/01 07:53:50;;;;;;;;;;;;;;;19.25;58.80;100916.53;7390404;19;1246;-36
2024/03/01 07:56:23;;;;;;;;;;;;;;;19.02;58.67;100916.69;7386015;19;1296;-39
2024/03/01 07:58:56;;;;;;;;;;;;;;;18.78;56.88;100908.91;7389838;19;1445;-36
2024/03/01 08:01:27;;;;;;;;;;;;;;;18.62;58.44;100924.53;7390571;19;1931;-37
2024/03/01 08:03:55;;;;;;;;;;;;;;;18.55;57.56;100918.03;7392442;19;1405;-36
2024/03/01 08:06:24;;;;;;;;;;;;;;;18.85;56.90;100919.97;7388928;19;1845;-36
2024/03/01 08:08:55;;;;;;;;;;;;;;;19.14;55.91;100930.00;7389434;19;1209;-36
2024/03/01 08:11:29;;;;;;;;;;;;;;;19.17;56.33;100894.91;7391885;19;1314;-36
2024/03/01 08:13:58;;;;;;;;;;;;;;;19.03;56.87;100896.94;7390522;19;1331;-36
2024/03/01 08:16:27;;;;;;;;;;;;;;;18.89;57.15;100905.31;7389155;19;1778;-35
2024/03/01 08:18:56;;;;;;;;;;;;;;;18.80;57.21;100895.38;7388905;19;1765;-36
2024/03/01 08:21:24;;;;;;;;;;;;;;;18.67;57.73;100884.84;7390855;19;1896;-36
2024/03/01 08:23:55;;;;;;;;;;;;;;;18.88;57.21;100871.50;7390576;19;1603;-36
2024/03/01 08:26:25;;;;;;;;;;;;;;;18.88;57.33;100884.88;7390317;19;1860;-36
2024/03/01 08:28:53;;;;;;;;;;;;;;;18.78;57.53;100897.31;7391552;19;1941;-36
2024/03/01 08:31:26;;;;;;;;;;;;;;;18.83;57.15;100868.34;7391560;19;1646;-36
2024/03/01 08:34:00;;;;;;;;;;;;;;;18.71;57.84;100891.63;7391028;19;1275;-36
2024/03/01 08:36:28;;;;;;;;;;;;;;;18.84;57.24;100857.50;7391876;19;1184;-36
2024/03/01 08:39:11;;;;;;;;;;;;;;;18.87;57.25;100865.25;7389347;19;1580;-36
2024/03/01 08:41:41;;;;;;;;;;;;;;;18.80;57.59;100863.22;7389525;19;1550;-36
2024/03/01 08:44:28;;;;;;;;;;;;;;;18.59;56.94;100863.22;7388888;19;1618;-36
2024/03/01 08:46:56;;;;;;;;;;;;;;;18.55;57.61;100862.63;7389004;19;1897;-37
2024/03/01 08:49:53;;;;;;;;;;;;;;;18.80;56.81;100873.94;7389464;19;1477;-36
2024/03/01 08:52:27;;;;;;;;;;;;;;;18.91;56.84;100828.34;7391174;19;1504;-36
2024/03/01 08:54:59;;;;;;;;;;;;;;;18.79;56.97;100834.72;7389852;19;1476;-36
2024/03/01 08:57:28;;;;;;;;;;;;;;;18.84;56.93;100832.50;7389212;19;1813;-37
2024/03/01 08:59:56;;;;;;;;;;;;;;;18.68;57.53;100839.19;7388403;19;1460;-36
2024/03/01 09:02:44;;;;;;;;;;;;;;;18.62;57.98;100829.00;7387857;19;1520;-36
2024/03/01 09:05:13;;;;;;;;;;;;;;;18.85;57.55;100843.09;7385764;19;1755;-36
2024/03/01 09:07:41;;;;;;;;;;;;;;;18.93;57.54;100842.44;7382668;19;1883;-36
2024/03/01 09:10:18;;;;;;;;;;;;;;;18.82;57.72;100835.34;7385170;19;1501;-36
2024/03/01 09:12:47;;;;;;;;;;;;;;;18.74;57.57;100853.88;7387013;19;1492;-36
2024/03/01 09:15:18;;;;;;;;;;;;;;;18.63;58.04;100838.72;7384954;19;1504;-36
2024/03/01 09:17:46;;;;;;;;;;;;;;;18.72;58.08;100836.22;7385027;19;1489;-36
2024/03/01 09:20:18;;;;;;;;;;;;;;;18.87;58.01;100849.19;7386100;19;1233;-36
2024/03/01 09:22:46;;;;;;;;;;;;;;;19.03;58.10;100861.25;7386990;19;1476;-36
2024/03/01 09:25:38;;;;;;;;;;;;;;;18.74;57.83;100845.84;7386140;19;1533;-36
2024/03/01 09:28:08;;;;;;;;;;;;;;;18.77;58.04;100855.44;7382879;19;2458;-36
2024/03/01 09:30:36;;;;;;;;;;;;;;;18.42;58.45;100835.19;7385717;19;1336;-37
2024/03/01 09:33:05;;;;;;;;;;;;;;;18.68;58.18;100857.94;7385519;19;1472;-37
2024/03/01 09:35:34;;;;;;;;;;;;;;;18.89;57.73;100832.97;7385776;19;1592;-37
2024/03/01 09:38:04;;;;;;;;;;;;;;;19.02;57.97;100846.16;7387024;19;1481;-40
2024/03/01 09:40:57;;;;;;;;;;;;;;;19.05;58.06;100841.38;7389479;19;1761;-37
2024/03/01 09:43:28;;;;;;;;;;;;;;;19.00;58.34;100864.19;7389399;19;1259;-36
2024/03/01 09:45:57;;;;;;;;;;;;;;;18.87;58.28;100841.13;7390127;19;1858;-37
2024/03/01 09:48:34;;;;;;;;;;;;;;;18.83;58.41;100834.34;7388747;19;1567;-39
2024/03/01 09:51:12;;;;;;;;;;;;;;;18.71;58.86;100847.94;7388728;19;1476;-36
2024/03/01 09:53:52;;;;;;;;;;;;;;;18.90;58.66;100842.72;7387755;19;1520;-36
2024/03/01 09:56:36;;;;;;;;;;;;;;;19.12;58.15;100847.06;7387611;19;1408;-36
2024/03/01 09:59:12;;;;;;;;;;;;;;;19.04;58.27;100854.94;7388680;19;1480;-36
2024/03/01 10:01:43;;;;;;;;;;;;;;;18.90;58.45;100829.34;7388410;19;1362;-36
2024/03/01 10:04:20;;;;;;;;;;;;;;;18.88;58.54;100816.06;7387499;19;1477;-35
2024/03/01 10:07:03;;;;;;;;;;;;;;;18.71;58.95;100827.34;7386711;19;1843;-35
2024/03/01 10:09:39;;;;;;;;;;;;;;;18.85;58.68;100831.53;7386040;19;1208;-36
2024/03/01 10:12:15;;;;;;;;;;;;;;;19.03;58.52;100837.97;7386880;19;1420;-35
2024/03/01 10:14:49;;;;;;;;;;;;;;;19.24;57.72;100837.94;7388333;19;1156;-36
2024/03/01 10:17:26;;;;;;;;;;;;;;;19.05;58.14;100835.16;7388520;19;1753;-36
2024/03/01 10:20:09;;;;;;;;;;;;;;;18.94;58.52;100812.00;7388328;19;1579;-35
2024/03/01 10:22:45;;;;;;;;;;;;;;;18.87;58.57;100813.50;7389498;19;1019;-36
2024/03/01 10:25:18;;;;;;;;;;;;;;;18.69;59.08;100822.13;7387353;19;1734;-36
2024/03/01 10:27:51;;;;;;;;;;;;;;;18.82;58.73;100805.88;7386507;19;1859;-35
2024/03/01 10:30:22;;;;;;;;;;;;;;;19.07;58.37;100807.25;7387852;19;1366;-35
2024/03/01 10:33:06;;;;;;;;;;;;;;;19.42;57.36;100791.72;7387468;19;1781;-36
2024/03/01 10:35:40;;;;;;;;;;;;;;;19.17;57.91;100795.72;7386497;19;2342;-36
2024/03/01 10:38:13;;;;;;;;;;;;;;;19.03;58.33;100786.22;7388411;19;1824;-35
2024/03/01 10:40:45;;;;;;;;;;;;;;;18.89;58.47;100779.38;7387781;19;1257;-36
2024/03/01 10:43:20;;;;;;;;;;;;;;;18.81;58.91;100776.53;7387562;19;1848;-35
2024/03/01 10:45:50;;;;;;;;;;;;;;;18.89;58.79;100787.44;7387609;19;1163;-36
2024/03/01 10:48:18;;;;;;;;;;;;;;;19.04;58.28;100791.44;7385812;19;1952;-35
2024/03/01 10:50:51;;;;;;;;;;;;;;;19.15;58.00;100781.59;7387572;19;1949;-35
2024/03/01 10:53:24;;;;;;;;;;;;;;;19.02;58.27;100782.69;7386077;19;1743;-36
2024/03/01 10:55:56;;;;;;;;;;;;;;;18.93;58.39;100777.28;7387059;19;1258;-35
2024/03/01 10:58:32;;;;;;;;;;;;;;;18.84;58.75;100781.59;7387512;19;1817;-36
2024/03/01 11:01:07;;;;;;;;;;;;;;;18.76;59.17;100786.75;7388343;19;1662;-36
2024/03/01 11:03:43;;;;;;;;;;;;;;;18.99;58.62;100782.09;7387889;19;1737;-35
2024/03/01 11:06:19;;;;;;;;;;;;;;;19.11;58.21;100770.28;7383914;19;1875;-35
2024/03/01 11:08:52;;;;;;;;;;;;;;;19.01;58.51;100762.22;7387018;19;1756;-36
2024/03/01 11:11:23;;;;;;;;;;;;;;;18.92;58.46;100754.16;7386620;19;1558;-36
2024/03/01 11:13:56;;;;;;;;;;;;;;;18.76;59.09;100755.47;7388532;19;978;-36
2024/03/01 11:16:28;;;;;;;;;;;;;;;18.69;59.24;100756.97;7387736;19;1050;-36
2024/03/01 11:18:59;;;;;;;;;;;;;;;18.88;58.97;100742.88;7387590;19;1472;-37
2024/03/01 11:21:29;;;;;;;;;;;;;;;19.19;58.11;100746.34;7387228;19;1896;-36
2024/03/01 11:23:59;;;;;;;;;;;;;;;19.12;58.20;100747.00;7386926;19;1239;-36
2024/03/01 11:26:30;;;;;;;;;;;;;;;18.98;58.46;100741.06;7387325;19;1859;-36
2024/03/01 11:29:03;;;;;;;;;;;;;;;18.81;58.73;100736.34;7386292;19;1144;-36
2024/03/01 11:31:33;;;;;;;;;;;;;;;18.67;59.19;100734.84;7390676;19;1398;-36
2024/03/01 11:34:04;;;;;;;;;;;;;;;18.80;58.83;100726.59;7393493;19;1262;-36
2024/03/01 11:36:42;;;;;;;;;;;;;;;19.08;58.42;100735.75;7394154;19;1410;-36
2024/03/01 11:39:17;;;;;;;;;;;;;;;19.12;58.09;100730.94;7394749;19;1058;-36
2024/03/01 11:41:52;;;;;;;;;;;;;;;19.01;58.17;100719.34;7395100;19;1022;-36
2024/03/01 11:44:32;;;;;;;;;;;;;;;18.87;58.54;100714.38;7394864;19;1026;-36
2024/03/01 11:47:22;;;;;;;;;;;;;;;18.71;58.74;100720.19;7389716;19;1853;-36
2024/03/01 11:50:07;;;;;;;;;;;;;;;18.82;58.85;100724.63;7394104;19;1175;-36
2024/03/01 11:52:52;;;;;;;;;;;;;;;19.15;58.15;100722.63;7394303;19;1421;-37
2024/03/01 11:55:25;;;;;;;;;;;;;;;19.13;58.01;100720.09;7393795;19;1748;-36
2024/03/01 11:58:00;;;;;;;;;;;;;;;19.07;58.20;100709.91;7393896;19;1047;-36
2024/03/01 12:00:46;;;;;;;;;;;;;;;18.86;58.37;100696.59;7393912;19;1051;-36
2024/03/01 12:03:42;;;;;;;;;;;;;;;18.72;58.85;100713.00;7393889;19;983;-36
2024/03/01 12:06:13;;;;;;;;;;;;;;;18.86;58.84;100712.66;7389759;19;1483;-38
2024/03/01 12:08:54;;;;;;;;;;;;;;;19.16;57.89;100701.06;7390955;19;1857;-36
2024/03/01 12:11:25;;;;;;;;;;;;;;;19.07;58.06;100697.34;7390440;19;1925;-36
2024/03/01 12:13:57;;;;;;;;;;;;;;;19.04;58.12;100697.63;7391756;19;1657;-36
2024/03/01 12:16:35;;;;;;;;;;;;;;;18.87;58.43;100677.69;7392164;19;1006;-36
2024/03/01 12:19:10;;;;;;;;;;;;;;;18.76;58.88;100701.91;7392779;19;1056;-36
2024/03/01 12:21:48;;;;;;;;;;;;;;;18.88;58.63;100689.28;7392772;19;1050;-37
2024/03/01 12:24:18;;;;;;;;;;;;;;;19.15;58.02;100660.97;7390517;19;1860;-36
2024/03/01 12:26:52;;;;;;;;;;;;;;;19.13;58.06;100654.91;7391637;19;1894;-36
2024/03/01 12:29:30;;;;;;;;;;;;;;;18.96;58.24;100661.78;7389108;19;1512;-36
2024/03/01 12:32:10;;;;;;;;;;;;;;;18.83;58.64;100652.16;7391370;19;1215;-36
2024/03/01 12:34:48;;;;;;;;;;;;;;;18.67;58.98;100644.63;7390918;19;1350;-36
2024/03/01 12:37:25;;;;;;;;;;;;;;;18.77;58.91;100641.13;7391426;19;1259;-36
2024/03/01 12:40:03;;;;;;;;;;;;;;;19.05;58.46;100639.53;7390939;19;1358;-36
2024/03/01 12:42:38;;;;;;;;;;;;;;;19.15;57.88;100652.94;7390268;19;1327;-36
2024/03/01 12:45:11;;;;;;;;;;;;;;;19.08;58.13;100642.78;7390577;19;1342;-37
2024/03/01 12:47:52;;;;;;;;;;;;;;;18.89;58.49;100645.41;7391295;19;1847;-36
2024/03/01 12:50:25;;;;;;;;;;;;;;;18.73;59.09;100650.44;7390717;19;1666;-36
2024/03/01 12:53:05;;;;;;;;;;;;;;;18.73;58.88;100656.63;7391808;19;1255;-36
2024/03/01 12:55:39;;;;;;;;;;;;;;;19.03;58.46;100649.53;7391410;19;1420;-36
2024/03/01 12:58:13;;;;;;;;;;;;;;;19.13;58.04;100644.19;7391270;19;1231;-37
2024/03/01 13:00:43;;;;;;;;;;;;;;;19.00;58.16;100631.91;7391200;19;1286;-36
2024/03/01 13:03:22;;;;;;;;;;;;;;;18.86;58.36;100648.34;7393060;19;1150;-36
2024/03/01 13:05:52;;;;;;;;;;;;;;;18.65;58.92;100649.25;7392275;19;1086;-36
2024/03/01 13:08:22;;;;;;;;;;;;;;;18.67;59.10;100652.66;7391818;19;1899;-36